Time;durP1;ratioP1;P1;durP2;ratioP2;P2;SDS_P1;SDS_P2;PMS_P1;PMS_P2;Temp;Humidity;BMP_temperature;BMP_pressure;BME280_temperature;BME280_humidity;BME280_pressure;Samples;Min_cycle;Max_cycle;Signal;HPM_P1;HPM_P2
2022/05/21 00:00:24;;;;;;;59.27;3.27;;;;;;;;;;5073065;28;20999;-75
2022/05/21 00:02:51;;;;;;;59.60;3.60;;;;;;;;;;5073118;28;20504;-75
2022/05/21 00:05:19;;;;;;;59.17;3.20;;;;;;;;;;5073029;28;20538;-75
2022/05/21 00:07:48;;;;;;;60.00;4.10;;;;;;;;;;5072308;28;20456;-75
2022/05/21 00:10:17;;;;;;;60.20;3.87;;;;;;;;;;5072613;28;20467;-73
2022/05/21 00:12:44;;;;;;;59.87;3.40;;;;;;;;;;5072881;28;20867;-74
2022/05/21 00:15:12;;;;;;;59.50;3.50;;;;;;;;;;5072781;28;20476;-74
2022/05/21 00:17:40;;;;;;;58.80;3.20;;;;;;;;;;5072300;28;20550;-75
2022/05/21 00:20:47;;;;;;;59.27;3.20;;;;;;;;;;5072750;28;20474;-75
2022/05/21 00:22:56;;;;;;;58.77;2.90;;;;;;;;;;5072309;28;20830;-76
2022/05/21 00:25:24;;;;;;;59.37;3.27;;;;;;;;;;5072775;28;20461;-75
2022/05/21 00:27:51;;;;;;;59.37;3.17;;;;;;;;;;5072097;28;20980;-75
2022/05/21 00:30:19;;;;;;;58.80;3.30;;;;;;;;;;5072397;28;20492;-74
2022/05/21 00:32:46;;;;;;;58.93;3.10;;;;;;;;;;5072349;28;20564;-76
2022/05/21 00:35:13;;;;;;;59.20;3.30;;;;;;;;;;5072093;28;20445;-75
2022/05/21 00:37:40;;;;;;;59.37;3.30;;;;;;;;;;5071834;28;20568;-74
2022/05/21 00:40:09;;;;;;;59.43;3.77;;;;;;;;;;5072523;28;20496;-74
2022/05/21 00:42:36;;;;;;;58.87;3.00;;;;;;;;;;5072570;28;20454;-74
2022/05/21 00:45:03;;;;;;;59.53;3.33;;;;;;;;;;5072345;28;20526;-74
2022/05/21 00:47:31;;;;;;;59.30;3.27;;;;;;;;;;5071600;28;20453;-75
2022/05/21 00:49:58;;;;;;;58.97;3.10;;;;;;;;;;5071956;28;20488;-75
2022/05/21 00:52:28;;;;;;;59.57;3.57;;;;;;;;;;5072076;28;20454;-75
2022/05/21 00:54:56;;;;;;;59.50;3.87;;;;;;;;;;5072266;28;20454;-74
2022/05/21 00:57:27;;;;;;;58.97;3.27;;;;;;;;;;5071449;28;20459;-74
2022/05/21 00:59:55;;;;;;;59.03;3.27;;;;;;;;;;5072484;28;20846;-74
2022/05/21 01:02:24;;;;;;;58.87;2.93;;;;;;;;;;5072276;28;20453;-75
2022/05/21 01:04:51;;;;;;;59.60;3.67;;;;;;;;;;5072133;28;20968;-75
2022/05/21 01:07:19;;;;;;;59.60;4.10;;;;;;;;;;5070894;28;20461;-74
2022/05/21 01:09:51;;;;;;;59.17;3.20;;;;;;;;;;5071748;28;20455;-75
2022/05/21 01:12:18;;;;;;;59.37;3.70;;;;;;;;;;5071574;28;20477;-74
2022/05/21 01:14:50;;;;;;;59.50;3.53;;;;;;;;;;5071327;28;20466;-74
2022/05/21 01:17:18;;;;;;;59.23;3.20;;;;;;;;;;5071016;28;20548;-74
2022/05/21 01:19:55;;;;;;;59.80;3.77;;;;;;;;;;5071949;28;20485;-75
2022/05/21 01:22:26;;;;;;;60.10;3.50;;;;;;;;;;5071760;28;20442;-76
2022/05/21 01:24:53;;;;;;;59.17;3.27;;;;;;;;;;5071563;28;20449;-75
2022/05/21 01:27:21;;;;;;;59.50;3.10;;;;;;;;;;5071119;28;20497;-75
2022/05/21 01:29:50;;;;;;;63.97;5.13;;;;;;;;;;5071569;28;20445;-75
2022/05/21 01:32:18;;;;;;;59.97;3.97;;;;;;;;;;5071478;28;20476;-75
2022/05/21 01:34:45;;;;;;;59.67;3.80;;;;;;;;;;5067111;28;20459;-76
2022/05/21 01:37:12;;;;;;;59.43;3.53;;;;;;;;;;5071145;28;20827;-74
2022/05/21 01:39:40;;;;;;;59.47;3.47;;;;;;;;;;5071462;28;20460;-75
2022/05/21 01:42:08;;;;;;;59.17;3.43;;;;;;;;;;5071543;28;20480;-74
2022/05/21 01:44:40;;;;;;;59.57;3.30;;;;;;;;;;5071467;28;20533;-74
2022/05/21 01:47:08;;;;;;;60.27;4.70;;;;;;;;;;5071322;28;20460;-74
2022/05/21 01:49:35;;;;;;;58.90;2.90;;;;;;;;;;5071167;28;20543;-73
2022/05/21 01:52:03;;;;;;;61.60;3.63;;;;;;;;;;5071305;28;20500;-74
2022/05/21 01:54:30;;;;;;;79.20;4.27;;;;;;;;;;5071190;28;20448;-74
2022/05/21 01:56:58;;;;;;;59.10;3.40;;;;;;;;;;5071241;28;20536;-73
2022/05/21 01:59:26;;;;;;;59.20;3.13;;;;;;;;;;5070758;28;20894;-73
2022/05/21 02:01:53;;;;;;;59.50;3.23;;;;;;;;;;5071795;28;20579;-74
2022/05/21 02:04:21;;;;;;;59.87;3.47;;;;;;;;;;5071596;28;20555;-74
2022/05/21 02:06:48;;;;;;;59.30;2.90;;;;;;;;;;5071406;28;20482;-74
2022/05/21 02:09:15;;;;;;;58.97;2.90;;;;;;;;;;5070741;28;20447;-74
2022/05/21 02:11:45;;;;;;;60.00;3.47;;;;;;;;;;5071458;28;20984;-75
2022/05/21 02:14:13;;;;;;;59.03;3.20;;;;;;;;;;5071211;28;20460;-74
2022/05/21 02:16:41;;;;;;;59.60;3.30;;;;;;;;;;5070929;28;20546;-75
2022/05/21 02:19:08;;;;;;;58.83;3.07;;;;;;;;;;5072277;28;20534;-75
2022/05/21 02:21:37;;;;;;;59.50;3.10;;;;;;;;;;5075086;28;20487;-75
2022/05/21 02:24:05;;;;;;;59.17;2.87;;;;;;;;;;5075100;28;20443;-75
2022/05/21 02:26:34;;;;;;;59.27;3.10;;;;;;;;;;5074886;28;20443;-77
2022/05/21 02:29:02;;;;;;;59.70;3.50;;;;;;;;;;5074058;28;20520;-75
2022/05/21 02:31:30;;;;;;;59.07;3.10;;;;;;;;;;5075096;28;20460;-76
2022/05/21 02:33:57;;;;;;;59.87;4.03;;;;;;;;;;5074580;28;20960;-75
2022/05/21 02:41:50;;;;;;;59.50;3.33;;;;;;;;;;5074318;28;20545;-75
2022/05/21 02:44:17;;;;;;;59.23;3.50;;;;;;;;;;5074814;28;20451;-75
2022/05/21 02:46:47;;;;;;;60.00;4.13;;;;;;;;;;5074849;28;20470;-75
2022/05/21 02:49:14;;;;;;;59.80;3.20;;;;;;;;;;5073895;28;20539;-75
2022/05/21 02:51:41;;;;;;;59.20;3.17;;;;;;;;;;5074997;28;20913;-75
2022/05/21 02:54:10;;;;;;;59.10;3.07;;;;;;;;;;5074016;28;20444;-75
2022/05/21 02:56:37;;;;;;;60.20;3.30;;;;;;;;;;5074305;28;20541;-75
2022/05/21 02:59:06;;;;;;;61.23;4.37;;;;;;;;;;5073878;28;20446;-76
2022/05/21 03:01:34;;;;;;;59.37;2.90;;;;;;;;;;5074251;28;20593;-76
2022/05/21 03:04:03;;;;;;;59.47;3.30;;;;;;;;;;5074296;28;21009;-75
2022/05/21 03:06:30;;;;;;;59.43;3.10;;;;;;;;;;5074023;28;20960;-76
2022/05/21 03:11:42;;;;;;;59.77;3.23;;;;;;;;;;5074040;28;20446;-76
2022/05/21 03:14:09;;;;;;;59.37;3.07;;;;;;;;;;5074209;28;20456;-75
2022/05/21 03:16:36;;;;;;;59.23;3.20;;;;;;;;;;5073717;28;20450;-75
2022/05/21 03:19:05;;;;;;;65.13;7.73;;;;;;;;;;5073112;28;20490;-75
2022/05/21 03:21:32;;;;;;;59.60;3.37;;;;;;;;;;5073790;28;20578;-77
2022/05/21 03:23:59;;;;;;;59.27;3.50;;;;;;;;;;5074083;28;20454;-76
2022/05/21 03:26:26;;;;;;;60.30;3.87;;;;;;;;;;5073958;28;20447;-75
2022/05/21 03:28:53;;;;;;;59.70;3.70;;;;;;;;;;5073313;28;20906;-76
2022/05/21 03:31:21;;;;;;;59.20;3.43;;;;;;;;;;5073357;28;20473;-75
2022/05/21 03:33:48;;;;;;;59.37;3.60;;;;;;;;;;5073388;28;20486;-75
2022/05/21 03:36:17;;;;;;;59.17;2.90;;;;;;;;;;5073536;28;20533;-75
2022/05/21 03:38:44;;;;;;;63.17;4.57;;;;;;;;;;5072876;28;20951;-75
2022/05/21 03:41:11;;;;;;;59.37;3.10;;;;;;;;;;5073085;28;20574;-75
2022/05/21 03:43:38;;;;;;;70.00;6.50;;;;;;;;;;5073250;28;20773;-76
2022/05/21 03:46:05;;;;;;;67.47;5.00;;;;;;;;;;5073183;28;20527;-75
2022/05/21 03:48:32;;;;;;;62.47;3.73;;;;;;;;;;5072568;28;20461;-75
2022/05/21 03:51:00;;;;;;;68.20;50.47;;;;;;;;;;5073298;28;20554;-75
2022/05/21 03:53:29;;;;;;;168.30;11.00;;;;;;;;;;5073308;28;20465;-75
2022/05/21 03:55:56;;;;;;;69.90;6.50;;;;;;;;;;5072989;28;20451;-75
2022/05/21 03:58:23;;;;;;;66.00;5.10;;;;;;;;;;5072580;28;20861;-76
2022/05/21 04:00:50;;;;;;;70.83;6.20;;;;;;;;;;5072971;28;20489;-75
2022/05/21 04:03:17;;;;;;;68.90;5.73;;;;;;;;;;5073542;28;20444;-75
2022/05/21 04:05:45;;;;;;;70.27;6.20;;;;;;;;;;5073051;28;20447;-75
2022/05/21 04:08:12;;;;;;;69.77;6.53;;;;;;;;;;5072481;28;20830;-75
2022/05/21 04:10:40;;;;;;;70.90;6.17;;;;;;;;;;5072287;28;20554;-75
2022/05/21 04:13:08;;;;;;;69.60;5.77;;;;;;;;;;5072685;28;20451;-76
2022/05/21 04:15:35;;;;;;;70.20;6.67;;;;;;;;;;5072474;28;20824;-75
2022/05/21 04:18:03;;;;;;;69.10;5.53;;;;;;;;;;5072141;28;20879;-75
2022/05/21 04:20:30;;;;;;;68.50;5.63;;;;;;;;;;5072636;28;20466;-75
2022/05/21 04:22:57;;;;;;;69.87;6.30;;;;;;;;;;5072794;28;20455;-75
2022/05/21 04:25:24;;;;;;;70.07;6.07;;;;;;;;;;5072669;28;20488;-76
2022/05/21 04:27:53;;;;;;;71.77;8.20;;;;;;;;;;5071837;28;20458;-77
2022/05/21 04:30:21;;;;;;;65.70;4.70;;;;;;;;;;5072349;28;20483;-75
2022/05/21 04:32:49;;;;;;;66.60;5.90;;;;;;;;;;5072552;28;20475;-75
2022/05/21 04:35:16;;;;;;;65.30;5.00;;;;;;;;;;5072209;28;20534;-76
2022/05/21 04:37:43;;;;;;;66.10;5.93;;;;;;;;;;5071891;28;21241;-75
2022/05/21 04:40:12;;;;;;;66.53;6.00;;;;;;;;;;5072238;28;20449;-76
2022/05/21 04:42:39;;;;;;;63.77;5.50;;;;;;;;;;5071546;28;20574;-75
2022/05/21 04:45:09;;;;;;;59.33;3.07;;;;;;;;;;5072699;28;20526;-75
2022/05/21 04:47:37;;;;;;;62.37;3.40;;;;;;;;;;5072256;28;20479;-76
2022/05/21 04:50:07;;;;;;;59.47;3.27;;;;;;;;;;5072327;28;20443;-76
2022/05/21 04:52:34;;;;;;;59.13;3.07;;;;;;;;;;5072077;28;21050;-76
2022/05/21 04:55:02;;;;;;;60.37;4.07;;;;;;;;;;5071806;28;20447;-76
2022/05/21 04:57:29;;;;;;;59.90;3.50;;;;;;;;;;5071602;28;20714;-75
2022/05/21 04:59:56;;;;;;;59.17;3.10;;;;;;;;;;5072146;28;20534;-75
2022/05/21 05:02:25;;;;;;;59.27;3.73;;;;;;;;;;5071819;28;21037;-75
2022/05/21 05:04:52;;;;;;;59.27;3.30;;;;;;;;;;5072147;28;20961;-74
2022/05/21 05:07:19;;;;;;;63.83;5.30;;;;;;;;;;5071219;28;20453;-75
2022/05/21 05:09:47;;;;;;;59.33;3.17;;;;;;;;;;5071762;28;21018;-76
2022/05/21 05:12:16;;;;;;;59.47;3.30;;;;;;;;;;5071906;28;20470;-76
2022/05/21 05:14:43;;;;;;;245.03;99.30;;;;;;;;;;5071939;28;20497;-75
2022/05/21 05:17:13;;;;;;;105.50;10.13;;;;;;;;;;5070929;28;20451;-75
2022/05/21 05:19:41;;;;;;;69.60;5.70;;;;;;;;;;5071811;28;20927;-75
2022/05/21 05:22:09;;;;;;;67.53;5.40;;;;;;;;;;5071526;28;20562;-75
2022/05/21 05:24:36;;;;;;;66.77;5.23;;;;;;;;;;5071630;28;20458;-76
2022/05/21 05:27:03;;;;;;;66.73;5.30;;;;;;;;;;5071897;28;20451;-77
2022/05/21 05:29:30;;;;;;;67.00;5.20;;;;;;;;;;5071091;28;20453;-75
2022/05/21 05:31:58;;;;;;;67.53;5.90;;;;;;;;;;5071596;28;20813;-74
2022/05/21 05:34:25;;;;;;;67.63;5.50;;;;;;;;;;5071512;28;20454;-75
2022/05/21 05:36:53;;;;;;;68.40;8.23;;;;;;;;;;5071392;28;20451;-75
2022/05/21 05:39:20;;;;;;;66.70;4.90;;;;;;;;;;5070956;28;20490;-75
2022/05/21 05:41:47;;;;;;;66.77;5.00;;;;;;;;;;5072016;28;20922;-76
2022/05/21 05:44:15;;;;;;;66.87;5.23;;;;;;;;;;5071664;28;20553;-76
2022/05/21 05:46:42;;;;;;;66.97;5.20;;;;;;;;;;5071765;28;20478;-74
2022/05/21 05:49:09;;;;;;;66.73;5.53;;;;;;;;;;5070822;28;20453;-73
2022/05/21 05:51:36;;;;;;;66.93;5.53;;;;;;;;;;5071497;28;20983;-73
2022/05/21 05:54:05;;;;;;;67.90;6.00;;;;;;;;;;5074695;28;20473;-75
2022/05/21 05:56:32;;;;;;;66.97;5.50;;;;;;;;;;5075351;28;20451;-74
2022/05/21 06:01:44;;;;;;;66.60;5.07;;;;;;;;;;5075260;28;20481;-75
2022/05/21 06:04:11;;;;;;;66.43;5.07;;;;;;;;;;5075737;28;20450;-74
2022/05/21 06:06:39;;;;;;;66.67;5.67;;;;;;;;;;5075459;28;20715;-75
2022/05/21 06:09:07;;;;;;;66.77;5.00;;;;;;;;;;5074824;28;20533;-75
2022/05/21 06:11:37;;;;;;;66.40;5.10;;;;;;;;;;5074964;28;20557;-75
2022/05/21 06:14:05;;;;;;;66.60;5.30;;;;;;;;;;5074911;28;20450;-75
2022/05/21 06:16:32;;;;;;;67.00;5.70;;;;;;;;;;5075017;28;20497;-74
2022/05/21 06:18:59;;;;;;;68.73;8.63;;;;;;;;;;5074328;28;20447;-74
2022/05/21 06:21:27;;;;;;;66.50;4.97;;;;;;;;;;5075043;28;20494;-74
2022/05/21 06:23:54;;;;;;;66.53;4.57;;;;;;;;;;5075079;28;20543;-74
2022/05/21 06:26:23;;;;;;;58.97;2.90;;;;;;;;;;5075029;28;20451;-74
2022/05/21 06:28:50;;;;;;;136.17;13.30;;;;;;;;;;5074059;28;20894;-74
2022/05/21 06:31:18;;;;;;;63.90;4.40;;;;;;;;;;5075073;28;20470;-72
2022/05/21 06:33:45;;;;;;;59.27;2.90;;;;;;;;;;5075036;28;20454;-75
2022/05/21 06:36:12;;;;;;;62.70;3.77;;;;;;;;;;5074923;28;20530;-75
2022/05/21 06:38:42;;;;;;;58.73;3.20;;;;;;;;;;5073854;28;20550;-75
2022/05/21 06:41:09;;;;;;;58.87;2.90;;;;;;;;;;5074291;28;20483;-76
2022/05/21 06:43:38;;;;;;;58.57;2.80;;;;;;;;;;5074512;28;20534;-75
2022/05/21 06:46:05;;;;;;;58.60;2.73;;;;;;;;;;5074461;28;20534;-75
2022/05/21 06:48:33;;;;;;;58.60;2.73;;;;;;;;;;5073985;28;20451;-75
2022/05/21 06:51:05;;;;;;;58.80;2.87;;;;;;;;;;5074489;28;20475;-75
2022/05/21 06:53:32;;;;;;;58.57;2.73;;;;;;;;;;5074277;28;20463;-75
2022/05/21 06:55:59;;;;;;;58.50;2.73;;;;;;;;;;5074421;28;20543;-76
2022/05/21 06:58:27;;;;;;;59.00;2.80;;;;;;;;;;5073643;28;20530;-74
2022/05/21 07:00:55;;;;;;;58.90;2.80;;;;;;;;;;5074728;28;20554;-76
2022/05/21 07:03:22;;;;;;;58.63;2.63;;;;;;;;;;5074372;28;20484;-75
2022/05/21 07:08:34;;;;;;;58.47;2.60;;;;;;;;;;5073499;28;20505;-75
2022/05/21 07:11:01;;;;;;;58.80;2.70;;;;;;;;;;5074231;28;20467;-75
2022/05/21 07:13:30;;;;;;;58.90;2.50;;;;;;;;;;5073711;28;20478;-76
2022/05/21 07:15:59;;;;;;;58.77;3.30;;;;;;;;;;5074162;28;20538;-76
2022/05/21 07:18:27;;;;;;;58.57;2.60;;;;;;;;;;5073150;28;20543;-76
2022/05/21 07:20:55;;;;;;;59.50;3.57;;;;;;;;;;5073607;28;20591;-75
2022/05/21 07:23:22;;;;;;;58.67;2.60;;;;;;;;;;5073944;28;20576;-75
2022/05/21 07:25:50;;;;;;;58.73;2.70;;;;;;;;;;5073047;28;20460;-76
2022/05/21 07:28:17;;;;;;;59.07;2.60;;;;;;;;;;5072814;28;20487;-75
2022/05/21 07:30:45;;;;;;;58.87;3.00;;;;;;;;;;5072728;28;20555;-76
2022/05/21 07:33:15;;;;;;;59.27;3.20;;;;;;;;;;5072904;28;20473;-76
2022/05/21 07:35:42;;;;;;;58.97;3.07;;;;;;;;;;5073712;28;20823;-73
2022/05/21 07:38:11;;;;;;;58.83;2.80;;;;;;;;;;5072283;28;20460;-76
2022/05/21 07:40:38;;;;;;;58.77;2.70;;;;;;;;;;5073533;28;20474;-77
2022/05/21 07:43:12;;;;;;;58.47;2.73;;;;;;;;;;5073532;28;20484;-75
2022/05/21 07:45:41;;;;;;;58.67;2.80;;;;;;;;;;5073499;28;20475;-76
2022/05/21 07:48:10;;;;;;;58.43;2.70;;;;;;;;;;5072971;28;20457;-75
2022/05/21 07:50:40;;;;;;;58.80;2.80;;;;;;;;;;5073127;28;20476;-75
2022/05/21 07:53:10;;;;;;;59.00;3.00;;;;;;;;;;5073202;28;20455;-77
2022/05/21 07:55:37;;;;;;;58.40;2.70;;;;;;;;;;5073509;28;20445;-75
2022/05/21 07:58:04;;;;;;;58.80;2.73;;;;;;;;;;5071748;28;20453;-76
2022/05/21 08:00:31;;;;;;;58.47;2.60;;;;;;;;;;5072644;28;20551;-76
2022/05/21 08:02:58;;;;;;;58.47;2.70;;;;;;;;;;5072876;28;20492;-76
2022/05/21 08:05:26;;;;;;;59.30;3.73;;;;;;;;;;5073164;28;20488;-76
2022/05/21 08:07:54;;;;;;;59.57;2.70;;;;;;;;;;5072617;28;20447;-76
2022/05/21 08:10:22;;;;;;;58.80;2.80;;;;;;;;;;5072843;28;21004;-77
2022/05/21 08:12:50;;;;;;;58.87;2.67;;;;;;;;;;5072577;28;20454;-76
2022/05/21 08:15:17;;;;;;;58.80;2.97;;;;;;;;;;5073275;28;20481;-76
2022/05/21 08:17:44;;;;;;;58.83;2.67;;;;;;;;;;5070720;28;20507;-74
2022/05/21 08:20:12;;;;;;;58.87;2.50;;;;;;;;;;5072605;28;20462;-73
2022/05/21 08:28:13;;;;;;;58.80;2.70;;;;;;;;;;5072269;28;20431;-73
2022/05/21 08:30:40;;;;;;;58.57;2.37;;;;;;;;;;5072202;28;20882;-74
2022/05/21 08:33:08;;;;;;;58.83;2.70;;;;;;;;;;5072310;28;20949;-74
2022/05/21 08:35:38;;;;;;;59.00;3.00;;;;;;;;;;5072364;28;20541;-74
2022/05/21 08:38:05;;;;;;;58.43;2.40;;;;;;;;;;5070742;28;20457;-75
2022/05/21 08:40:41;;;;;;;58.10;2.80;;;;;;;;;;5072203;28;21025;-75
2022/05/21 08:43:10;;;;;;;58.70;2.40;;;;;;;;;;5072564;28;20556;-74
2022/05/21 08:45:44;;;;;;;58.67;2.57;;;;;;;;;;5072682;28;20537;-75
2022/05/21 08:48:12;;;;;;;58.87;3.00;;;;;;;;;;5071632;28;20476;-75
2022/05/21 08:50:43;;;;;;;60.53;3.00;;;;;;;;;;5072361;28;20546;-75
2022/05/21 08:53:13;;;;;;;58.57;2.50;;;;;;;;;;5072152;28;20448;-75
2022/05/21 08:55:44;;;;;;;59.20;2.77;;;;;;;;;;5072196;28;20990;-75
2022/05/21 08:58:16;;;;;;;58.20;2.70;;;;;;;;;;5070897;28;20450;-74
2022/05/21 09:00:45;;;;;;;58.77;2.50;;;;;;;;;;5071687;28;20474;-75
2022/05/21 09:03:13;;;;;;;58.43;2.30;;;;;;;;;;5072238;28;20580;-75
2022/05/21 09:05:42;;;;;;;58.67;2.57;;;;;;;;;;5072323;28;20900;-75
2022/05/21 09:08:11;;;;;;;58.53;2.53;;;;;;;;;;5071279;28;20454;-75
2022/05/21 09:10:51;;;;;;;58.73;2.53;;;;;;;;;;5071400;28;20481;-75
2022/05/21 09:13:20;;;;;;;58.70;2.60;;;;;;;;;;5071698;28;20451;-74
2022/05/21 09:18:32;;;;;;;58.47;2.50;;;;;;;;;;5070449;28;20438;-75
2022/05/21 09:21:00;;;;;;;57.97;2.70;;;;;;;;;;5071604;28;20473;-76
2022/05/21 09:23:46;;;;;;;58.80;2.60;;;;;;;;;;5071853;28;21017;-76
2022/05/21 09:26:15;;;;;;;59.00;3.17;;;;;;;;;;5072059;28;20804;-76
2022/05/21 09:28:42;;;;;;;59.30;3.20;;;;;;;;;;5070604;28;20534;-76
2022/05/21 09:31:10;;;;;;;58.80;3.03;;;;;;;;;;5071179;28;20535;-76
2022/05/21 09:33:38;;;;;;;58.60;2.50;;;;;;;;;;5071644;28;20443;-76
2022/05/21 09:36:06;;;;;;;58.40;2.53;;;;;;;;;;5071243;28;20451;-75
2022/05/21 09:38:35;;;;;;;58.53;2.50;;;;;;;;;;5070343;28;20466;-75
2022/05/21 09:41:20;;;;;;;58.63;2.50;;;;;;;;;;5071762;28;20565;-76
2022/05/21 09:46:42;;;;;;;62.13;2.90;;;;;;;;;;5071829;28;20475;-76
2022/05/21 09:49:20;;;;;;;59.00;2.50;;;;;;;;;;5071057;28;20489;-76
2022/05/21 09:51:54;;;;;;;59.63;2.50;;;;;;;;;;5071818;28;20550;-76
2022/05/21 09:54:22;;;;;;;58.50;2.63;;;;;;;;;;5071168;28;20476;-74
2022/05/21 09:56:51;;;;;;;59.30;2.80;;;;;;;;;;5071295;28;20910;-74
2022/05/21 09:59:21;;;;;;;58.00;2.50;;;;;;;;;;5070150;28;20454;-74
2022/05/21 10:01:49;;;;;;;58.73;2.30;;;;;;;;;;5071256;28;20507;-75
2022/05/21 10:04:21;;;;;;;58.37;2.30;;;;;;;;;;5071658;28;20592;-74
2022/05/21 10:06:51;;;;;;;58.60;2.60;;;;;;;;;;5071552;28;20485;-74
2022/05/21 10:12:06;;;;;;;58.50;2.50;;;;;;;;;;5071236;28;20444;-76
2022/05/21 10:14:36;;;;;;;58.57;2.30;;;;;;;;;;5071083;28;20465;-75
2022/05/21 10:17:06;;;;;;;58.90;2.60;;;;;;;;;;5071158;28;20478;-76
2022/05/21 10:19:36;;;;;;;59.67;2.93;;;;;;;;;;5070504;28;20494;-76
2022/05/21 10:22:14;;;;;;;61.27;2.90;;;;;;;;;;5070953;28;20468;-76
2022/05/21 10:24:49;;;;;;;58.07;2.17;;;;;;;;;;5071218;28;21044;-76
2022/05/21 10:27:23;;;;;;;58.10;2.30;;;;;;;;;;5070831;28;20954;-76
2022/05/21 10:30:00;;;;;;;57.80;1.87;;;;;;;;;;5071729;28;20455;-76
2022/05/21 10:32:37;;;;;;;57.93;2.00;;;;;;;;;;5070931;28;20530;-76
2022/05/21 10:35:18;;;;;;;57.57;2.07;;;;;;;;;;5071005;28;20427;-73
2022/05/21 10:37:54;;;;;;;57.87;2.23;;;;;;;;;;5069650;28;20476;-73
2022/05/21 10:40:32;;;;;;;57.87;2.10;;;;;;;;;;5072299;28;20463;-75
2022/05/21 10:43:08;;;;;;;57.67;2.00;;;;;;;;;;5074640;28;20467;-75
2022/05/21 10:45:41;;;;;;;57.53;1.90;;;;;;;;;;5074916;28;20443;-75
2022/05/21 10:48:29;;;;;;;57.57;1.83;;;;;;;;;;5074023;28;20447;-76
2022/05/21 10:50:58;;;;;;;57.67;2.00;;;;;;;;;;5069041;28;20566;-74
2022/05/21 10:53:44;;;;;;;57.60;1.80;;;;;;;;;;5074350;28;20439;-73
2022/05/21 10:56:17;;;;;;;57.30;1.80;;;;;;;;;;5074181;28;20481;-74
2022/05/21 10:58:51;;;;;;;58.13;1.97;;;;;;;;;;5073118;28;20535;-75
2022/05/21 11:01:26;;;;;;;57.63;2.00;;;;;;;;;;5074152;28;20497;-74
2022/05/21 11:04:14;;;;;;;57.23;1.80;;;;;;;;;;5074219;28;20482;-74
2022/05/21 11:06:52;;;;;;;57.17;1.80;;;;;;;;;;5074545;28;20515;-74
2022/05/21 11:09:24;;;;;;;57.17;1.90;;;;;;;;;;5073838;28;20542;-74
2022/05/21 11:11:58;;;;;;;57.23;2.03;;;;;;;;;;5073919;28;20467;-74
2022/05/21 11:14:28;;;;;;;57.50;2.10;;;;;;;;;;5073870;28;20450;-74
2022/05/21 11:17:01;;;;;;;57.23;1.90;;;;;;;;;;5073882;28;20886;-75
2022/05/21 11:19:33;;;;;;;57.40;1.80;;;;;;;;;;5072739;28;20535;-74
2022/05/21 11:22:03;;;;;;;57.30;2.00;;;;;;;;;;5074006;28;20483;-74
2022/05/21 11:24:33;;;;;;;57.27;1.83;;;;;;;;;;5073576;28;20532;-74
2022/05/21 11:27:02;;;;;;;57.30;2.00;;;;;;;;;;5073955;28;20447;-75
2022/05/21 11:29:34;;;;;;;57.23;1.60;;;;;;;;;;5073287;28;20448;-74
2022/05/21 11:37:35;;;;;;;57.87;2.70;;;;;;;;;;5073034;28;21051;-74
2022/05/21 11:40:03;;;;;;;57.27;2.20;;;;;;;;;;5072878;28;20948;-74
2022/05/21 11:42:32;;;;;;;58.53;2.37;;;;;;;;;;5073174;28;20546;-74
2022/05/21 11:45:14;;;;;;;57.70;2.50;;;;;;;;;;5073516;28;20439;-74
2022/05/21 11:47:50;;;;;;;57.00;1.80;;;;;;;;;;5072963;28;20470;-74
2022/05/21 11:50:19;;;;;;;58.07;2.03;;;;;;;;;;5073280;28;20467;-74
2022/05/21 11:53:04;;;;;;;57.23;1.93;;;;;;;;;;5073363;28;20443;-74
2022/05/21 11:55:33;;;;;;;57.17;1.80;;;;;;;;;;5072383;28;20485;-75
2022/05/21 11:58:01;;;;;;;57.17;2.00;;;;;;;;;;5072252;28;20453;-74
2022/05/21 12:00:49;;;;;;;57.27;2.07;;;;;;;;;;5072095;28;20558;-75
2022/05/21 12:03:22;;;;;;;57.20;1.90;;;;;;;;;;5073530;28;20533;-75
2022/05/21 12:06:14;;;;;;;57.53;2.03;;;;;;;;;;5075287;28;20452;-75
2022/05/21 12:08:46;;;;;;;56.97;1.87;;;;;;;;;;5072490;28;20995;-75
2022/05/21 12:11:35;;;;;;;57.07;1.70;;;;;;;;;;5073906;28;20979;-75
2022/05/21 12:14:05;;;;;;;57.97;1.80;;;;;;;;;;5072589;28;20452;-75
2022/05/21 12:16:42;;;;;;;58.00;1.80;;;;;;;;;;5072628;28;20534;-74
2022/05/21 12:19:11;;;;;;;57.07;1.90;;;;;;;;;;5071339;28;20533;-75
2022/05/21 12:21:57;;;;;;;57.33;2.40;;;;;;;;;;5072811;28;20459;-75
2022/05/21 12:24:34;;;;;;;57.93;2.33;;;;;;;;;;5072679;28;20479;-74
2022/05/21 12:27:02;;;;;;;61.90;2.43;;;;;;;;;;5072470;28;21011;-74
2022/05/21 12:29:31;;;;;;;57.47;1.70;;;;;;;;;;5072353;28;20455;-74
2022/05/21 12:32:00;;;;;;;57.40;1.90;;;;;;;;;;5072067;28;20474;-73
2022/05/21 12:34:42;;;;;;;57.40;2.00;;;;;;;;;;5072326;28;20814;-75
2022/05/21 12:37:15;;;;;;;60.33;1.90;;;;;;;;;;5071980;28;20452;-74
2022/05/21 12:39:47;;;;;;;64.70;2.90;;;;;;;;;;5071822;28;20509;-75
2022/05/21 12:42:19;;;;;;;57.97;2.27;;;;;;;;;;5071859;28;20550;-75
2022/05/21 12:44:47;;;;;;;57.07;1.60;;;;;;;;;;5071709;28;20489;-75
2022/05/21 12:47:21;;;;;;;57.43;2.07;;;;;;;;;;5071485;28;20447;-74
2022/05/21 12:49:51;;;;;;;57.57;2.00;;;;;;;;;;5072332;28;20534;-74
2022/05/21 12:52:26;;;;;;;57.17;1.90;;;;;;;;;;5071760;28;20474;-74
2022/05/21 12:55:08;;;;;;;57.30;1.70;;;;;;;;;;5071833;28;20490;-77
2022/05/21 12:57:35;;;;;;;57.43;1.97;;;;;;;;;;5071145;28;20952;-75
2022/05/21 13:00:04;;;;;;;56.93;1.60;;;;;;;;;;5071330;28;20990;-75
2022/05/21 13:02:40;;;;;;;57.80;1.90;;;;;;;;;;5070935;28;20446;-75
2022/05/21 13:05:12;;;;;;;57.27;1.90;;;;;;;;;;5072432;28;20490;-74
2022/05/21 13:07:41;;;;;;;57.90;2.10;;;;;;;;;;5071361;28;20451;-75
2022/05/21 13:10:19;;;;;;;57.40;1.70;;;;;;;;;;5071818;28;20521;-75
2022/05/21 13:12:47;;;;;;;57.17;1.83;;;;;;;;;;5071215;28;20473;-75
2022/05/21 13:15:18;;;;;;;57.60;1.90;;;;;;;;;;5072097;28;20439;-74
2022/05/21 13:17:47;;;;;;;57.87;2.13;;;;;;;;;;5071222;28;20483;-74
2022/05/21 13:20:19;;;;;;;61.80;2.10;;;;;;;;;;5071373;28;20824;-74
2022/05/21 13:22:56;;;;;;;57.87;2.10;;;;;;;;;;5071452;28;20800;-74
2022/05/21 13:25:23;;;;;;;58.30;2.20;;;;;;;;;;5071724;28;20489;-74
2022/05/21 13:27:51;;;;;;;58.90;2.23;;;;;;;;;;5070993;28;20538;-74
2022/05/21 13:30:20;;;;;;;58.50;2.20;;;;;;;;;;5071876;28;20904;-74
2022/05/21 13:32:53;;;;;;;58.10;1.87;;;;;;;;;;5071386;28;20474;-74
2022/05/21 13:35:23;;;;;;;57.87;2.10;;;;;;;;;;5071730;28;20480;-75
2022/05/21 13:37:51;;;;;;;59.33;2.53;;;;;;;;;;5070515;28;20546;-75
2022/05/21 13:40:20;;;;;;;58.10;2.00;;;;;;;;;;5071162;28;20475;-75
2022/05/21 13:42:49;;;;;;;58.40;2.10;;;;;;;;;;5071173;28;20483;-75
2022/05/21 13:45:18;;;;;;;57.87;2.07;;;;;;;;;;5071702;28;20493;-75
2022/05/21 13:47:48;;;;;;;58.10;2.00;;;;;;;;;;5071023;28;20454;-76
2022/05/21 13:50:15;;;;;;;58.37;2.00;;;;;;;;;;5071496;28;20455;-75
2022/05/21 13:52:43;;;;;;;58.13;2.17;;;;;;;;;;5071732;28;20545;-75
2022/05/21 13:55:13;;;;;;;60.43;2.40;;;;;;;;;;5071389;28;20448;-75
2022/05/21 13:57:41;;;;;;;59.47;2.40;;;;;;;;;;5070836;28;20531;-74
2022/05/21 14:00:14;;;;;;;58.10;2.10;;;;;;;;;;5070610;28;20513;-75
2022/05/21 14:02:42;;;;;;;57.67;1.93;;;;;;;;;;5070911;28;20971;-75
2022/05/21 14:05:28;;;;;;;57.67;1.90;;;;;;;;;;5071266;28;20902;-75
2022/05/21 14:07:58;;;;;;;58.03;2.13;;;;;;;;;;5071060;28;20806;-75
2022/05/21 14:10:33;;;;;;;57.70;1.90;;;;;;;;;;5071144;28;20939;-75
2022/05/21 14:13:05;;;;;;;57.80;1.87;;;;;;;;;;5070952;28;20451;-75
2022/05/21 14:15:34;;;;;;;57.80;2.07;;;;;;;;;;5073118;28;20541;-74
2022/05/21 14:18:03;;;;;;;57.97;2.23;;;;;;;;;;5073889;28;20456;-75
2022/05/21 14:20:32;;;;;;;58.17;2.03;;;;;;;;;;5074351;28;20976;-74
2022/05/21 14:23:17;;;;;;;57.67;1.70;;;;;;;;;;5074761;28;20460;-74
2022/05/21 14:25:45;;;;;;;58.60;2.00;;;;;;;;;;5074624;28;20495;-75
2022/05/21 14:28:23;;;;;;;58.13;1.93;;;;;;;;;;5074323;28;21006;-75
2022/05/21 14:30:51;;;;;;;57.83;1.73;;;;;;;;;;5075021;28;20478;-75
2022/05/21 14:33:20;;;;;;;58.80;2.33;;;;;;;;;;5074829;28;20508;-75
2022/05/21 14:35:48;;;;;;;63.30;2.10;;;;;;;;;;5074572;28;20948;-74
2022/05/21 14:38:19;;;;;;;58.07;2.00;;;;;;;;;;5073539;28;20456;-75
2022/05/21 14:40:49;;;;;;;57.87;1.70;;;;;;;;;;5074171;28;20513;-75
2022/05/21 14:43:26;;;;;;;57.97;2.00;;;;;;;;;;5074323;28;20546;-75
2022/05/21 14:45:54;;;;;;;58.07;1.90;;;;;;;;;;5074914;28;20446;-74
2022/05/21 14:48:20;;;;;;;57.90;1.87;;;;;;;;;;5074055;28;20451;-74
2022/05/21 14:53:36;;;;;;;57.77;1.90;;;;;;;;;;5074293;28;20804;-75
2022/05/21 14:56:06;;;;;;;57.90;2.20;;;;;;;;;;5074247;28;20458;-74
2022/05/21 14:58:33;;;;;;;58.17;2.20;;;;;;;;;;5073551;28;20455;-75
2022/05/21 15:01:01;;;;;;;57.77;2.20;;;;;;;;;;5073410;28;20975;-76
2022/05/21 15:03:28;;;;;;;58.30;2.33;;;;;;;;;;5073672;28;20455;-74
2022/05/21 15:05:55;;;;;;;57.90;2.07;;;;;;;;;;5072872;28;20831;-74
2022/05/21 15:08:26;;;;;;;57.77;1.93;;;;;;;;;;5072238;28;21052;-75
2022/05/21 15:10:53;;;;;;;57.80;1.90;;;;;;;;;;5072437;28;20471;-74
2022/05/21 15:13:22;;;;;;;58.00;2.23;;;;;;;;;;5072317;28;20450;-74
2022/05/21 15:15:49;;;;;;;58.17;2.33;;;;;;;;;;5072114;28;20528;-75
2022/05/21 15:18:16;;;;;;;57.83;1.93;;;;;;;;;;5071604;28;20613;-75